Time;durP1;ratioP1;P1;durP2;ratioP2;P2;SDS_P1;SDS_P2;PMS_P1;PMS_P2;Temp;Humidity;BMP_temperature;BMP_pressure;BME280_temperature;BME280_humidity;BME280_pressure;Samples;Min_cycle;Max_cycle;Signal;HPM_P1;HPM_P2
2022/08/12 00:44:40;;;;;;;3.80;3.50;;;19.50;99.90;;;;;;5052128;28;20561;-54
2022/08/12 00:47:10;;;;;;;3.80;3.60;;;19.40;99.90;;;;;;5048182;28;20220;-55
2022/08/12 00:49:38;;;;;;;3.30;3.20;;;19.40;99.90;;;;;;5054330;28;20222;-54
2022/08/12 00:52:07;;;;;;;4.30;4.10;;;19.30;99.90;;;;;;5053075;28;20243;-54
2022/08/12 00:54:36;;;;;;;4.40;4.00;;;19.30;99.90;;;;;;5053777;28;20228;-54
2022/08/12 00:57:07;;;;;;;4.30;4.10;;;19.20;99.90;;;;;;5053778;28;20197;-55
2022/08/12 00:59:35;;;;;;;4.33;4.03;;;19.20;99.90;;;;;;5054350;28;20198;-55
2022/08/12 01:02:05;;;;;;;4.10;3.97;;;19.20;99.90;;;;;;5045370;28;20241;-54
2022/08/12 01:12:51;;;;;;;4.20;4.10;;;19.10;99.90;;;;;;5053726;28;20254;-54
2022/08/12 01:15:19;;;;;;;4.40;4.20;;;19.10;99.90;;;;;;5051554;28;20253;-55
2022/08/12 01:17:47;;;;;;;4.37;4.27;;;19.00;99.90;;;;;;5050109;28;20233;-54
2022/08/12 01:20:35;;;;;;;4.57;4.37;;;19.00;99.90;;;;;;5052334;28;20542;-54
2022/08/12 01:23:28;;;;;;;3.90;3.70;;;19.00;99.90;;;;;;5052495;28;20229;-54
2022/08/12 01:26:00;;;;;;;4.63;4.40;;;19.00;99.90;;;;;;5053124;28;20241;-55
2022/08/12 01:28:28;;;;;;;4.30;4.10;;;18.80;99.90;;;;;;5053632;28;20284;-54
2022/08/12 01:30:57;;;;;;;5.43;5.13;;;18.80;99.90;;;;;;5047347;28;20226;-55
2022/08/12 01:33:26;;;;;;;6.20;5.90;;;18.80;99.90;;;;;;5052141;28;20206;-55
2022/08/12 01:36:02;;;;;;;5.40;5.20;;;18.70;99.90;;;;;;5054035;28;20225;-54
2022/08/12 01:38:33;;;;;;;4.50;4.30;;;18.70;99.90;;;;;;5050736;28;20197;-55
2022/08/12 01:41:03;;;;;;;5.30;5.00;;;18.70;99.90;;;;;;5049439;28;20190;-55
2022/08/12 01:43:31;;;;;;;4.80;4.60;;;18.70;99.90;;;;;;5052599;28;20197;-54
2022/08/12 01:46:06;;;;;;;5.40;5.10;;;18.60;99.90;;;;;;5052287;28;20221;-54
2022/08/12 01:48:48;;;;;;;4.63;4.43;;;18.60;99.90;;;;;;5048100;28;20226;-55
2022/08/12 01:51:33;;;;;;;5.33;5.10;;;18.50;99.90;;;;;;5042196;28;20225;-55
2022/08/12 01:54:05;;;;;;;5.20;4.90;;;18.50;99.90;;;;;;5045539;28;20711;-54
2022/08/12 01:56:42;;;;;;;5.00;4.80;;;18.50;99.90;;;;;;5051809;28;20226;-54
2022/08/12 02:02:01;;;;;;;4.53;4.33;;;18.40;99.90;;;;;;5047821;28;20685;-54
2022/08/12 02:13:46;;;;;;;3.17;3.07;;;18.20;99.90;;;;;;5045859;28;20224;-54
2022/08/12 02:16:23;;;;;;;3.70;3.60;;;18.30;99.90;;;;;;5052950;28;20213;-55
2022/08/12 02:19:09;;;;;;;3.33;3.17;;;18.30;99.90;;;;;;5046748;28;20209;-54
2022/08/12 02:21:41;;;;;;;3.60;3.40;;;18.30;99.90;;;;;;5048725;28;20198;-54
2022/08/12 02:24:12;;;;;;;3.93;3.73;;;18.20;99.90;;;;;;5053288;28;20675;-54
2022/08/12 02:26:42;;;;;;;3.47;3.37;;;18.10;99.90;;;;;;5053562;28;20234;-55
2022/08/12 02:29:12;;;;;;;3.00;2.97;;;18.00;99.90;;;;;;5049345;28;20217;-55
2022/08/12 02:31:44;;;;;;;3.67;3.57;;;18.00;99.90;;;;;;5043037;28;20221;-55
2022/08/12 02:34:12;;;;;;;3.37;3.17;;;17.90;99.90;;;;;;5053152;28;20194;-54
2022/08/12 02:36:40;;;;;;;3.43;3.27;;;17.90;99.90;;;;;;5042277;28;20258;-55
2022/08/12 02:39:08;;;;;;;3.10;3.00;;;17.90;99.90;;;;;;5053580;28;20646;-54
2022/08/12 02:41:39;;;;;;;3.27;3.17;;;17.90;99.90;;;;;;5047546;28;20281;-55
2022/08/12 02:44:09;;;;;;;3.10;2.90;;;17.80;99.90;;;;;;5053113;28;20202;-54
2022/08/12 02:46:39;;;;;;;3.70;3.60;;;17.70;99.90;;;;;;5053319;28;20253;-54
2022/08/12 02:49:13;;;;;;;3.47;3.37;;;17.70;99.90;;;;;;5050979;28;20336;-54
2022/08/12 02:51:44;;;;;;;3.43;3.33;;;17.60;99.90;;;;;;5048271;28;20220;-54
2022/08/12 02:54:11;;;;;;;3.40;3.27;;;17.60;99.90;;;;;;5050906;28;20293;-55
2022/08/12 02:56:41;;;;;;;3.87;3.77;;;17.50;99.90;;;;;;5048469;28;20225;-55
2022/08/12 02:59:09;;;;;;;3.30;3.20;;;17.50;99.90;;;;;;5053063;28;20202;-55
2022/08/12 03:01:43;;;;;;;3.70;3.60;;;17.50;99.90;;;;;;5052032;28;20285;-55
2022/08/12 03:04:16;;;;;;;2.93;2.83;;;17.40;99.90;;;;;;5051494;28;20607;-55
2022/08/12 03:06:51;;;;;;;3.40;3.30;;;17.40;99.90;;;;;;5045676;28;20629;-55
2022/08/12 03:09:20;;;;;;;3.80;3.53;;;17.30;99.90;;;;;;5051670;28;20200;-54
2022/08/12 03:11:55;;;;;;;3.53;3.33;;;17.30;99.90;;;;;;5052669;28;20271;-54
2022/08/12 03:14:27;;;;;;;3.87;3.67;;;17.40;99.90;;;;;;5052647;28;20233;-54
2022/08/12 03:17:07;;;;;;;3.20;3.10;;;17.40;99.90;;;;;;5041891;28;20219;-55
2022/08/12 03:19:37;;;;;;;4.30;4.03;;;17.30;99.90;;;;;;5049824;28;20745;-54
2022/08/12 03:22:11;;;;;;;4.00;3.70;;;17.30;99.90;;;;;;5032644;28;20249;-54
2022/08/12 03:24:41;;;;;;;3.93;3.83;;;17.40;99.90;;;;;;5032506;28;20288;-54
2022/08/12 03:27:11;;;;;;;5.37;3.97;;;17.30;99.90;;;;;;5046847;28;20793;-52
2022/08/12 03:29:39;;;;;;;3.97;3.83;;;17.30;99.90;;;;;;5049793;28;20209;-54
2022/08/12 03:32:08;;;;;;;4.23;3.90;;;17.30;99.90;;;;;;5042999;28;20662;-54
2022/08/12 03:34:36;;;;;;;4.27;4.00;;;17.30;99.90;;;;;;5050735;28;20229;-52
2022/08/12 03:37:04;;;;;;;4.40;4.17;;;17.40;99.90;;;;;;5050757;28;20210;-54
2022/08/12 03:39:40;;;;;;;4.43;4.03;;;17.40;99.90;;;;;;5052134;28;20229;-55
2022/08/12 03:42:34;;;;;;;4.03;3.93;;;17.30;99.90;;;;;;5052144;28;20201;-55
2022/08/12 04:01:56;;;;;;;5.07;4.87;;;16.90;99.90;;;;;;5049138;28;20720;-54
2022/08/12 04:04:27;;;;;;;3.93;3.73;;;17.00;99.90;;;;;;5046451;28;20438;-54
2022/08/12 04:06:54;;;;;;;4.70;4.23;;;17.00;99.90;;;;;;5042260;28;20226;-54
2022/08/12 04:09:22;;;;;;;5.47;5.10;;;17.10;99.90;;;;;;5047200;28;20194;-54
2022/08/12 04:14:36;;;;;;;3.93;3.83;;;17.10;99.90;;;;;;5051539;28;20580;-55
2022/08/12 04:17:04;;;;;;;4.37;4.17;;;16.90;99.90;;;;;;5045215;28;20623;-55
2022/08/12 04:19:33;;;;;;;4.07;3.87;;;16.90;99.90;;;;;;5047555;28;20206;-55
2022/08/12 04:22:00;;;;;;;4.83;4.53;;;16.90;99.90;;;;;;5049979;28;20198;-54
2022/08/12 04:24:27;;;;;;;5.30;5.10;;;16.90;99.90;;;;;;5051202;28;20273;-54
2022/08/12 04:26:55;;;;;;;4.20;4.07;;;16.80;99.90;;;;;;5050142;28;20657;-54
2022/08/12 04:29:25;;;;;;;4.67;4.37;;;16.80;99.90;;;;;;5048243;28;20649;-54
2022/08/12 04:31:53;;;;;;;5.40;5.20;;;16.80;99.90;;;;;;5040732;28;20220;-54
2022/08/12 04:34:21;;;;;;;4.80;4.60;;;16.80;99.90;;;;;;5042240;28;20202;-54
2022/08/12 04:36:50;;;;;;;4.80;4.60;;;16.80;99.90;;;;;;5037234;28;20223;-52
2022/08/12 04:39:18;;;;;;;5.53;5.23;;;16.80;99.90;;;;;;5040349;28;20289;-54
2022/08/12 04:41:45;;;;;;;5.27;4.97;;;16.80;99.90;;;;;;5045988;28;20190;-54
2022/08/12 04:44:13;;;;;;;4.73;4.43;;;16.80;99.90;;;;;;5032258;28;20241;-54
2022/08/12 04:46:40;;;;;;;4.63;4.43;;;16.80;99.90;;;;;;5036276;28;20587;-54
2022/08/12 04:49:07;;;;;;;4.93;4.73;;;16.80;99.90;;;;;;5046563;28;20229;-55
2022/08/12 04:51:35;;;;;;;6.57;6.07;;;16.90;99.90;;;;;;5031483;28;20227;-54
2022/08/12 04:54:05;;;;;;;5.77;5.40;;;17.10;99.90;;;;;;5035619;28;20675;-52
2022/08/12 04:56:34;;;;;;;4.80;4.63;;;17.50;99.90;;;;;;5039509;28;20224;-54
2022/08/12 04:59:01;;;;;;;4.90;4.50;;;17.90;99.90;;;;;;5038631;28;20207;-54
2022/08/12 05:01:29;;;;;;;4.43;4.13;;;18.40;99.90;;;;;;5036546;28;20207;-54
2022/08/12 05:03:57;;;;;;;3.50;3.40;;;18.70;99.90;;;;;;5040232;28;20205;-54
2022/08/12 05:06:27;;;;;;;4.40;4.23;;;18.80;99.90;;;;;;5034463;28;20268;-54
2022/08/12 05:08:55;;;;;;;4.40;4.20;;;18.70;99.90;;;;;;5036932;28;20198;-54
2022/08/12 05:11:24;;;;;;;4.07;3.87;;;18.70;99.90;;;;;;5038195;28;20320;-54
2022/08/12 05:14:00;;;;;;;3.37;3.27;;;18.80;99.90;;;;;;5038991;28;20737;-54
2022/08/12 05:16:29;;;;;;;3.17;3.03;;;19.40;99.90;;;;;;5040134;28;20221;-54
2022/08/12 05:18:57;;;;;;;3.57;3.47;;;20.30;99.90;;;;;;5039138;28;20298;-54
2022/08/12 05:21:24;;;;;;;3.23;3.03;;;21.20;99.90;;;;;;5042900;28;20663;-54
2022/08/12 05:23:53;;;;;;;3.20;3.00;;;21.70;99.90;;;;;;5035654;28;20206;-54
2022/08/12 05:26:21;;;;;;;5.20;3.40;;;22.20;99.90;;;;;;5038551;28;20242;-54
2022/08/12 05:28:53;;;;;;;3.23;3.13;;;22.50;99.90;;;;;;5038551;28;20233;-54
2022/08/12 05:31:20;;;;;;;3.77;3.27;;;23.20;99.90;;;;;;5036954;28;20218;-56
2022/08/12 05:33:47;;;;;;;4.47;3.17;;;23.70;99.90;;;;;;5037322;28;20206;-54
2022/08/12 05:36:18;;;;;;;3.03;2.93;;;23.60;99.90;;;;;;5040012;28;20301;-54
2022/08/12 05:38:58;;;;;;;3.97;3.37;;;23.80;99.90;;;;;;5045135;28;20229;-54
2022/08/12 05:41:27;;;;;;;3.03;2.73;;;23.60;99.90;;;;;;5041056;28;20202;-54
2022/08/12 05:43:58;;;;;;;3.20;3.10;;;23.70;99.90;;;;;;5043201;28;20267;-54
2022/08/12 05:46:26;;;;;;;2.90;2.80;;;23.80;99.90;;;;;;5043894;28;20225;-54
2022/08/12 05:48:54;;;;;;;3.90;3.70;;;23.50;99.90;;;;;;5043519;28;20458;-54
2022/08/12 05:51:23;;;;;;;3.40;3.30;;;23.70;99.90;;;;;;5036924;28;20276;-54
2022/08/12 05:53:53;;;;;;;3.50;3.30;;;23.80;99.90;;;;;;5040508;28;20208;-55
2022/08/12 05:56:23;;;;;;;3.30;3.13;;;24.10;99.90;;;;;;5045831;28;20573;-55
2022/08/12 05:58:52;;;;;;;2.83;2.73;;;24.60;99.90;;;;;;5041343;28;20298;-54
2022/08/12 06:01:22;;;;;;;2.90;2.80;;;25.40;99.90;;;;;;5042974;28;20245;-55
2022/08/12 06:03:51;;;;;;;2.83;2.63;;;25.70;99.90;;;;;;5037390;28;20198;-55
2022/08/12 06:06:19;;;;;;;3.23;3.13;;;26.20;99.90;;;;;;5038297;28;20225;-55
2022/08/12 06:08:48;;;;;;;3.27;2.97;;;26.00;99.90;;;;;;5036354;28;20285;-55
2022/08/12 06:11:16;;;;;;;3.60;3.33;;;25.70;99.90;;;;;;5034344;28;20301;-54
2022/08/12 06:13:45;;;;;;;2.80;2.70;;;26.20;99.90;;;;;;5042297;28;20256;-54
2022/08/12 06:16:14;;;;;;;3.20;2.90;;;26.40;99.90;;;;;;5039443;28;20636;-55
2022/08/12 06:18:43;;;;;;;2.63;2.53;;;26.90;99.90;;;;;;5041282;28;20202;-54
2022/08/12 06:21:11;;;;;;;2.90;2.80;;;27.40;99.90;;;;;;5045116;28;20206;-55
2022/08/12 06:23:38;;;;;;;2.87;2.73;;;27.40;99.90;;;;;;5040672;28;20663;-54
2022/08/12 06:26:11;;;;;;;3.10;2.90;;;27.10;99.90;;;;;;5042481;28;20650;-54
2022/08/12 06:28:38;;;;;;;3.47;3.27;;;26.60;99.90;;;;;;5042865;28;20214;-55
2022/08/12 06:31:06;;;;;;;4.00;3.60;;;26.30;99.90;;;;;;5042101;28;20227;-54
2022/08/12 06:33:33;;;;;;;3.93;3.63;;;25.80;99.90;;;;;;5035140;28;20206;-54
2022/08/12 06:36:02;;;;;;;3.27;3.07;;;25.50;99.90;;;;;;5045058;28;20218;-54
2022/08/12 06:38:31;;;;;;;3.13;2.87;;;25.30;99.90;;;;;;5040634;28;20198;-54
2022/08/12 06:43:50;;;;;;;2.70;2.60;;;25.70;99.90;;;;;;5032672;28;20285;-54
2022/08/12 06:46:18;;;;;;;2.60;2.47;;;25.30;99.90;;;;;;5033743;28;20223;-54
2022/08/12 06:48:45;;;;;;;2.67;2.57;;;26.00;99.90;;;;;;5038331;28;20198;-55
2022/08/12 06:51:13;;;;;;;3.63;3.33;;;26.00;99.90;;;;;;5041303;28;20219;-55
2022/08/12 06:53:41;;;;;;;2.97;2.87;;;25.70;99.90;;;;;;5038799;28;20206;-54
2022/08/12 06:56:08;;;;;;;3.20;2.90;;;26.40;99.90;;;;;;5033928;28;20250;-55
2022/08/12 06:58:37;;;;;;;4.00;3.53;;;26.80;99.90;;;;;;5040542;28;20663;-54
2022/08/12 07:01:05;;;;;;;2.90;2.80;;;27.20;99.90;;;;;;5036922;28;20265;-54
2022/08/12 07:03:32;;;;;;;3.10;3.00;;;27.00;99.90;;;;;;5033187;28;20245;-54
2022/08/12 07:06:01;;;;;;;3.20;3.10;;;27.30;99.90;;;;;;5041079;28;20324;-54
2022/08/12 07:08:31;;;;;;;2.97;2.87;;;27.50;99.90;;;;;;5033992;28;20194;-55
2022/08/12 07:11:00;;;;;;;3.35;3.25;;;27.60;99.90;;;;;;5032227;28;20210;-55
2022/08/12 07:13:29;;;;;;;3.20;2.80;;;28.30;99.50;;;;;;5042692;28;20194;-54
2022/08/12 07:15:57;;;;;;;4.13;3.13;;;28.70;99.50;;;;;;5040032;28;20292;-54
2022/08/12 07:18:29;;;;;;;3.28;3.13;;;28.40;99.00;;;;;;5049857;28;20635;-54
2022/08/12 07:20:57;;;;;;;3.88;2.95;;;28.20;99.40;;;;;;5049716;28;20209;-55
2022/08/12 07:23:24;;;;;;;3.03;2.80;;;28.20;99.10;;;;;;5049775;28;20201;-54
2022/08/12 07:25:52;;;;;;;2.47;2.38;;;28.20;99.60;;;;;;5038746;28;20229;-55
2022/08/12 07:28:22;;;;;;;3.17;2.60;;;28.90;97.90;;;;;;5048294;28;20270;-54
2022/08/12 07:30:51;;;;;;;4.82;2.95;;;29.10;98.20;;;;;;5046341;28;20197;-55
2022/08/12 07:33:21;;;;;;;3.10;2.92;;;29.20;99.00;;;;;;5048267;28;20214;-54
2022/08/12 07:35:49;;;;;;;2.67;2.58;;;29.10;97.80;;;;;;5051092;28;20254;-54
2022/08/12 07:38:23;;;;;;;3.20;3.10;;;29.80;97.40;;;;;;5046953;28;20210;-55
2022/08/12 07:40:53;;;;;;;3.00;2.78;;;29.90;97.30;;;;;;5047435;28;20726;-54
2022/08/12 07:43:20;;;;;;;3.83;3.05;;;29.00;97.80;;;;;;5048273;28;20655;-54
2022/08/12 07:45:50;;;;;;;3.28;3.05;;;28.70;98.20;;;;;;5049062;28;20287;-54
2022/08/12 07:48:20;;;;;;;2.67;2.60;;;28.80;98.70;;;;;;5049121;28;20224;-55
2022/08/12 07:50:48;;;;;;;3.72;3.55;;;29.50;98.20;;;;;;5044676;28;20628;-55
2022/08/12 07:53:16;;;;;;;4.32;2.97;;;28.80;97.50;;;;;;5038812;28;20242;-54
2022/08/12 07:55:43;;;;;;;3.17;3.05;;;27.90;98.90;;;;;;5039497;28;20483;-55
2022/08/12 07:58:11;;;;;;;3.58;3.17;;;27.70;99.60;;;;;;5044308;28;20252;-55
2022/08/12 08:00:40;;;;;;;3.78;3.47;;;27.40;99.70;;;;;;5047754;28;20206;-54
2022/08/12 08:03:08;;;;;;;3.03;2.80;;;27.90;99.20;;;;;;5042538;28;20190;-55
2022/08/12 08:05:39;;;;;;;3.15;3.03;;;28.40;98.40;;;;;;5036745;28;20316;-54
2022/08/12 08:08:13;;;;;;;2.38;2.28;;;28.10;98.40;;;;;;5045623;28;20208;-55
2022/08/12 08:10:41;;;;;;;3.83;3.53;;;28.70;98.60;;;;;;5042885;28;20252;-54
2022/08/12 08:13:10;;;;;;;3.58;3.38;;;28.90;98.60;;;;;;5040728;28;20806;-54
2022/08/12 08:15:39;;;;;;;3.40;3.20;;;29.30;96.80;;;;;;5036565;28;20758;-54
2022/08/12 08:18:08;;;;;;;3.58;3.38;;;28.30;97.80;;;;;;5041064;28;20234;-54
2022/08/12 08:20:39;;;;;;;3.50;3.25;;;28.20;98.40;;;;;;5037847;28;20266;-54
2022/08/12 08:23:10;;;;;;;3.53;3.43;;;27.70;98.90;;;;;;5032972;28;20897;-55
2022/08/12 08:25:38;;;;;;;4.15;3.85;;;27.90;99.60;;;;;;5048249;28;20328;-55
2022/08/12 08:28:09;;;;;;;4.35;3.85;;;27.40;98.20;;;;;;5050252;28;20229;-55
2022/08/12 08:30:42;;;;;;;4.03;3.72;;;28.20;98.50;;;;;;5048155;28;20210;-55
2022/08/12 08:33:10;;;;;;;2.53;2.38;;;28.30;97.80;;;;;;5043230;28;20590;-55
2022/08/12 08:35:39;;;;;;;2.63;2.53;;;28.30;98.90;;;;;;5044147;28;20308;-55
2022/08/12 08:38:14;;;;;;;3.30;3.20;;;28.90;98.00;;;;;;5036804;28;20286;-55
2022/08/12 08:43:31;;;;;;;2.95;2.75;;;30.40;95.90;;;;;;5045482;28;20212;-55
2022/08/12 08:46:04;;;;;;;4.95;2.53;;;30.60;95.20;;;;;;5048369;28;20225;-55
2022/08/12 08:48:32;;;;;;;2.97;2.78;;;31.10;95.40;;;;;;5050747;28;20201;-55
2022/08/12 08:50:59;;;;;;;2.22;2.20;;;30.90;94.40;;;;;;5050440;28;20198;-54
2022/08/12 08:53:26;;;;;;;5.18;3.03;;;31.00;94.00;;;;;;5051115;28;20218;-55
2022/08/12 08:55:53;;;;;;;2.60;2.50;;;31.10;93.70;;;;;;5051622;28;20596;-55
2022/08/12 08:58:20;;;;;;;2.40;2.15;;;30.90;92.70;;;;;;5051712;28;20206;-55
2022/08/12 09:00:49;;;;;;;2.80;2.60;;;30.60;94.80;;;;;;5051486;28;20228;-55
2022/08/12 09:03:18;;;;;;;2.45;2.28;;;30.00;93.60;;;;;;5046317;28;20667;-55
2022/08/12 09:05:45;;;;;;;3.80;3.47;;;30.00;94.90;;;;;;5052134;28;20291;-55
2022/08/12 09:08:12;;;;;;;3.50;3.30;;;29.40;94.60;;;;;;5053995;28;20248;-55
2022/08/12 09:10:39;;;;;;;2.95;2.55;;;29.80;95.70;;;;;;5053784;28;20220;-54
2022/08/12 09:15:51;;;;;;;3.35;3.15;;;30.70;93.30;;;;;;5053483;28;20224;-55
2022/08/12 09:18:19;;;;;;;2.50;2.50;;;30.50;93.90;;;;;;5053853;28;20228;-55
2022/08/12 09:20:49;;;;;;;3.15;2.90;;;30.50;92.00;;;;;;5053525;28;20201;-55
2022/08/12 09:23:17;;;;;;;3.30;2.75;;;30.60;92.60;;;;;;5050378;28;20202;-55
2022/08/12 09:25:47;;;;;;;2.92;2.72;;;30.80;91.80;;;;;;5052497;28;20602;-55
2022/08/12 09:28:14;;;;;;;2.60;2.50;;;30.60;91.80;;;;;;5054944;28;20213;-54
2022/08/12 09:30:47;;;;;;;6.95;2.85;;;31.00;92.70;;;;;;5054856;28;20251;-56
2022/08/12 09:33:14;;;;;;;4.10;2.72;;;30.90;92.20;;;;;;5052467;28;20218;-55
2022/08/12 09:35:44;;;;;;;2.60;2.47;;;30.40;91.30;;;;;;5050834;28;20284;-55
2022/08/12 09:38:16;;;;;;;2.67;2.47;;;30.80;93.10;;;;;;5048267;28;20463;-54
2022/08/12 09:40:46;;;;;;;2.58;2.47;;;30.80;94.70;;;;;;5046548;28;20205;-54
2022/08/12 09:46:01;;;;;;;3.28;2.67;;;30.90;93.20;;;;;;5052333;28;20306;-55
2022/08/12 09:48:28;;;;;;;2.67;2.50;;;30.90;93.30;;;;;;5049676;28;20712;-55
2022/08/12 09:50:57;;;;;;;3.00;2.90;;;31.20;91.30;;;;;;5053424;28;20251;-55
2022/08/12 09:53:25;;;;;;;1.90;1.90;;;31.90;91.10;;;;;;5045788;28;20245;-55
2022/08/12 09:55:54;;;;;;;2.55;2.45;;;31.70;91.50;;;;;;5050442;28;20272;-55
2022/08/12 09:58:25;;;;;;;2.42;2.28;;;31.40;90.60;;;;;;5052878;28;20339;-55
2022/08/12 10:00:53;;;;;;;2.20;2.00;;;31.40;91.20;;;;;;5054096;28;20284;-55
2022/08/12 10:03:25;;;;;;;1.65;1.65;;;31.90;90.30;;;;;;5052392;28;20213;-54
2022/08/12 10:05:53;;;;;;;4.80;1.85;;;31.80;89.40;;;;;;5053195;28;20666;-54
2022/08/12 10:08:23;;;;;;;2.10;2.10;;;31.30;90.90;;;;;;5049313;28;20659;-54
2022/08/12 10:13:43;;;;;;;2.72;2.58;;;31.30;92.20;;;;;;5051213;28;20606;-55
2022/08/12 10:16:12;;;;;;;4.57;1.98;;;31.90;93.20;;;;;;5040673;28;20224;-55
2022/08/12 10:18:40;;;;;;;5.10;2.05;;;31.50;91.00;;;;;;5053654;28;20259;-55
2022/08/12 10:21:12;;;;;;;1.60;1.60;;;31.60;88.00;;;;;;5053510;28;20205;-54
2022/08/12 10:23:42;;;;;;;1.67;1.63;;;31.60;86.60;;;;;;5046539;28;20230;-54
2022/08/12 10:31:44;;;;;;;2.30;2.30;;;31.80;86.80;;;;;;5053410;28;20240;-55
2022/08/12 10:34:12;;;;;;;3.85;2.10;;;31.90;91.20;;;;;;5053561;28;20324;-55
2022/08/12 10:36:40;;;;;;;2.67;1.50;;;32.10;83.00;;;;;;5051817;28;20221;-55
2022/08/12 10:39:10;;;;;;;2.22;1.40;;;32.60;89.30;;;;;;5053507;28;20206;-55
2022/08/12 10:44:21;;;;;;;1.83;1.60;;;31.60;88.40;;;;;;5039518;28;20212;-55
2022/08/12 10:46:51;;;;;;;2.75;2.13;;;31.60;85.60;;;;;;5041264;28;20222;-55
2022/08/12 10:49:20;;;;;;;3.00;1.70;;;31.40;83.80;;;;;;5037330;28;20260;-55
2022/08/12 10:51:50;;;;;;;2.13;1.90;;;31.10;86.60;;;;;;5032401;28;20203;-55
2022/08/12 10:54:20;;;;;;;2.30;2.10;;;31.20;84.80;;;;;;5039608;28;20993;-56
2022/08/12 10:56:48;;;;;;;1.67;1.60;;;30.80;90.10;;;;;;5036230;28;20221;-55
2022/08/12 10:59:16;;;;;;;2.00;1.90;;;30.40;87.40;;;;;;5034789;28;20202;-55
2022/08/12 11:01:43;;;;;;;1.55;1.50;;;29.90;86.10;;;;;;5035321;28;20222;-55
2022/08/12 11:04:12;;;;;;;2.40;2.08;;;29.10;90.30;;;;;;5032298;28;20657;-55
2022/08/12 11:06:46;;;;;;;1.75;1.40;;;29.10;88.50;;;;;;5032278;28;20337;-55
2022/08/12 11:09:16;;;;;;;1.58;1.23;;;29.10;89.90;;;;;;5045505;28;20755;-55
2022/08/12 11:11:47;;;;;;;1.60;1.58;;;29.20;88.20;;;;;;5048329;28;20244;-54
2022/08/12 11:14:16;;;;;;;1.60;1.50;;;29.40;92.00;;;;;;5042149;28;20795;-55
2022/08/12 11:16:44;;;;;;;3.83;2.00;;;29.10;87.80;;;;;;5034442;28;20293;-55
2022/08/12 11:19:11;;;;;;;3.92;1.80;;;28.70;93.30;;;;;;5031811;28;20198;-55
2022/08/12 11:21:39;;;;;;;1.77;1.77;;;28.70;90.70;;;;;;5033958;28;20994;-55
2022/08/12 11:24:06;;;;;;;1.88;1.77;;;28.60;91.50;;;;;;5044358;28;20271;-55
2022/08/12 11:26:33;;;;;;;1.48;1.48;;;28.50;92.30;;;;;;5035210;28;20276;-54
2022/08/12 11:29:02;;;;;;;1.77;1.67;;;28.20;92.30;;;;;;5031241;28;20248;-54
2022/08/12 11:31:29;;;;;;;1.25;1.25;;;27.90;90.30;;;;;;5039862;28;20663;-55
2022/08/12 11:33:56;;;;;;;2.35;2.30;;;27.90;91.40;;;;;;5033877;28;20210;-55
2022/08/12 11:36:23;;;;;;;1.70;1.38;;;28.00;93.40;;;;;;5037325;28;20221;-55
2022/08/12 11:38:50;;;;;;;1.40;1.40;;;27.80;90.70;;;;;;5034710;28;20202;-55
2022/08/12 11:41:18;;;;;;;3.08;1.35;;;27.70;91.50;;;;;;5034246;28;20264;-57
2022/08/12 11:43:45;;;;;;;1.40;1.40;;;27.60;91.50;;;;;;5043160;28;20555;-55
2022/08/12 11:46:13;;;;;;;2.10;1.30;;;27.60;91.10;;;;;;5041677;28;20694;-55
2022/08/12 11:48:41;;;;;;;1.38;1.05;;;27.80;92.10;;;;;;5032683;28;20252;-55
2022/08/12 11:51:08;;;;;;;1.52;1.38;;;27.80;92.10;;;;;;5038943;28;20662;-54
2022/08/12 11:53:36;;;;;;;2.92;1.67;;;27.70;90.70;;;;;;5032710;28;20754;-54
2022/08/12 11:56:05;;;;;;;1.15;1.15;;;27.40;89.50;;;;;;5031779;28;20284;-55
2022/08/12 11:58:32;;;;;;;2.72;1.38;;;27.30;86.80;;;;;;5036311;28;20209;-54
2022/08/12 12:01:02;;;;;;;1.45;1.33;;;27.30;90.00;;;;;;5050106;28;20212;-55
2022/08/12 12:03:30;;;;;;;1.52;1.20;;;27.40;92.30;;;;;;5048414;28;20197;-55
2022/08/12 12:05:57;;;;;;;1.42;1.42;;;27.40;93.20;;;;;;5052392;28;20573;-55
2022/08/12 12:08:26;;;;;;;1.17;1.17;;;27.30;87.80;;;;;;5050169;28;20226;-55
2022/08/12 12:10:54;;;;;;;1.10;1.10;;;27.40;90.70;;;;;;5040715;28;20206;-55
2022/08/12 12:13:21;;;;;;;1.38;1.27;;;27.50;87.50;;;;;;5039765;28;20710;-55
2022/08/12 12:15:48;;;;;;;1.05;1.05;;;27.40;88.30;;;;;;5042235;28;20722;-55
2022/08/12 12:18:22;;;;;;;1.05;1.05;;;27.40;86.40;;;;;;5048384;28;20263;-55
2022/08/12 12:20:51;;;;;;;1.40;1.40;;;27.40;84.10;;;;;;5048843;28;20205;-54
2022/08/12 12:23:19;;;;;;;1.50;1.40;;;27.40;88.50;;;;;;5038219;28;20202;-54
2022/08/12 12:25:46;;;;;;;1.48;1.38;;;27.20;86.20;;;;;;5031102;28;20226;-55
2022/08/12 12:28:14;;;;;;;2.20;1.48;;;27.20;85.00;;;;;;5032550;28;20244;-55
2022/08/12 12:30:42;;;;;;;1.20;1.20;;;27.20;83.10;;;;;;5037103;28;20198;-54
2022/08/12 12:33:10;;;;;;;1.40;0.88;;;27.30;87.90;;;;;;5042565;28;20232;-54
2022/08/12 12:35:38;;;;;;;1.73;1.20;;;27.10;86.40;;;;;;5048356;28;20272;-55
2022/08/12 12:38:08;;;;;;;1.25;1.25;;;27.00;87.30;;;;;;5043257;28;20190;-55
2022/08/12 12:40:36;;;;;;;1.20;1.10;;;26.90;88.40;;;;;;5051098;28;20675;-56
2022/08/12 12:43:04;;;;;;;1.50;1.40;;;26.90;87.70;;;;;;5035123;28;20271;-54
2022/08/12 12:45:33;;;;;;;1.20;1.10;;;27.00;83.70;;;;;;5046258;28;20221;-55
2022/08/12 12:48:02;;;;;;;0.98;0.98;;;27.10;87.10;;;;;;5046652;28;20268;-55
2022/08/12 12:50:31;;;;;;;1.33;1.33;;;27.40;87.30;;;;;;5045826;28;20275;-54
2022/08/12 12:53:01;;;;;;;2.50;1.15;;;27.40;85.50;;;;;;5037515;28;20206;-55
2022/08/12 12:55:34;;;;;;;1.85;1.40;;;27.40;82.50;;;;;;5030851;28;20218;-55
2022/08/12 12:58:03;;;;;;;1.08;1.00;;;27.50;86.90;;;;;;5030251;28;20511;-55
2022/08/12 13:00:32;;;;;;;0.95;0.95;;;27.50;82.90;;;;;;5036105;28;20198;-54
2022/08/12 13:03:01;;;;;;;1.80;1.63;;;27.60;87.90;;;;;;5030629;28;20299;-55
2022/08/12 13:05:30;;;;;;;2.75;1.35;;;27.50;87.30;;;;;;5031608;28;20226;-55
2022/08/12 13:08:03;;;;;;;2.92;1.10;;;27.50;88.40;;;;;;5039180;28;20194;-55
2022/08/12 13:10:32;;;;;;;2.47;1.33;;;27.30;85.90;;;;;;5034127;28;20222;-54
2022/08/12 13:13:01;;;;;;;1.95;1.80;;;27.30;89.10;;;;;;5032685;28;20252;-54
2022/08/12 13:15:28;;;;;;;1.38;1.27;;;27.20;87.30;;;;;;5037538;28;20218;-54
2022/08/12 13:17:55;;;;;;;1.38;1.27;;;27.00;87.30;;;;;;5030213;28;20206;-55
2022/08/12 13:20:23;;;;;;;1.38;1.38;;;26.90;88.80;;;;;;5030760;28;20230;-54
2022/08/12 13:22:50;;;;;;;2.58;1.15;;;26.90;88.60;;;;;;5034253;28;20205;-55
2022/08/12 13:25:18;;;;;;;1.40;1.40;;;26.90;88.50;;;;;;5032372;28;20214;-55
2022/08/12 13:27:48;;;;;;;1.83;1.58;;;26.90;89.10;;;;;;5031184;28;20958;-55
2022/08/12 13:30:19;;;;;;;5.70;1.23;;;27.10;90.40;;;;;;5041239;28;20202;-55
2022/08/12 13:32:49;;;;;;;1.73;1.63;;;27.10;86.90;;;;;;5049514;28;20638;-55
2022/08/12 13:35:17;;;;;;;6.72;1.50;;;27.00;88.00;;;;;;5049023;28;20251;-55
2022/08/12 13:37:53;;;;;;;3.28;1.60;;;27.00;89.50;;;;;;5044431;28;20587;-56
2022/08/12 13:40:20;;;;;;;1.57;1.47;;;26.90;86.50;;;;;;5043463;28;20738;-55
2022/08/12 13:42:49;;;;;;;1.75;1.13;;;27.00;90.50;;;;;;5048524;28;20301;-55
2022/08/12 13:45:16;;;;;;;1.45;1.08;;;26.90;86.10;;;;;;5045030;28;20645;-55
2022/08/12 13:47:55;;;;;;;1.27;1.23;;;27.00;86.90;;;;;;5048219;28;20221;-55
2022/08/12 13:50:31;;;;;;;1.92;1.70;;;27.20;90.00;;;;;;5044294;28;20347;-55
2022/08/12 13:53:01;;;;;;;1.30;1.17;;;27.30;88.80;;;;;;5052030;28;20241;-56
2022/08/12 13:55:28;;;;;;;1.95;1.33;;;27.20;84.50;;;;;;5044292;28;20218;-55
2022/08/12 13:58:00;;;;;;;1.45;1.27;;;27.30;86.90;;;;;;5043111;28;20259;-55
2022/08/12 14:00:27;;;;;;;1.38;1.27;;;27.20;86.10;;;;;;5052195;28;20221;-55
2022/08/12 14:02:54;;;;;;;1.40;1.40;;;27.20;86.80;;;;;;5047334;28;20202;-55
2022/08/12 14:05:21;;;;;;;1.38;1.30;;;27.10;86.90;;;;;;5051049;28;20233;-55
2022/08/12 14:07:56;;;;;;;2.72;1.23;;;27.00;87.80;;;;;;5052355;28;20210;-55
2022/08/12 14:10:36;;;;;;;1.80;1.17;;;27.20;89.00;;;;;;5052914;28;20196;-55
2022/08/12 14:13:07;;;;;;;1.63;1.52;;;27.40;90.00;;;;;;5045553;28;20202;-55
2022/08/12 14:15:35;;;;;;;2.15;1.05;;;27.70;88.20;;;;;;5050025;28;20641;-55
2022/08/12 14:18:21;;;;;;;0.93;0.93;;;27.70;87.00;;;;;;5041608;28;20197;-55
2022/08/12 14:20:51;;;;;;;1.45;0.90;;;27.70;85.30;;;;;;5045890;28;20194;-55
2022/08/12 14:23:20;;;;;;;1.08;0.98;;;27.80;88.30;;;;;;5050315;28;20213;-55
2022/08/12 14:25:47;;;;;;;0.90;0.90;;;27.80;85.90;;;;;;5044976;28;20230;-56
2022/08/12 14:28:17;;;;;;;1.27;1.10;;;27.90;82.70;;;;;;5050966;28;20284;-56
2022/08/12 14:30:49;;;;;;;1.20;1.10;;;27.90;86.10;;;;;;5053385;28;20204;-55
2022/08/12 14:33:17;;;;;;;0.80;0.80;;;28.00;85.50;;;;;;5043914;28;20207;-55
2022/08/12 14:35:44;;;;;;;3.75;1.20;;;28.10;84.70;;;;;;5051545;28;20217;-55
2022/08/12 14:38:16;;;;;;;1.45;1.02;;;28.00;83.10;;;;;;5052305;28;20206;-56
2022/08/12 14:40:43;;;;;;;3.63;1.30;;;27.90;83.50;;;;;;5051620;28;20201;-55
2022/08/12 14:43:12;;;;;;;1.75;0.90;;;27.50;81.40;;;;;;5050255;28;20356;-55
2022/08/12 14:45:42;;;;;;;1.77;1.02;;;27.30;82.70;;;;;;5041057;28;20222;-55